sensor_id;sensor_type;location;lat;lon;timestamp;P1;durP1;ratioP1;P2;durP2;ratioP2
20073;SDS011;10197;54.282;10.078;2022-08-02T00:01:50;3.50;;;2.03;;
20073;SDS011;10197;54.282;10.078;2022-08-02T00:04:17;4.90;;;1.83;;
20073;SDS011;10197;54.282;10.078;2022-08-02T00:06:44;3.78;;;1.70;;
20073;SDS011;10197;54.282;10.078;2022-08-02T00:09:11;4.57;;;1.60;;
20073;SDS011;10197;54.282;10.078;2022-08-02T00:11:40;2.55;;;1.60;;
20073;SDS011;10197;54.282;10.078;2022-08-02T00:14:07;3.08;;;1.70;;
20073;SDS011;10197;54.282;10.078;2022-08-02T00:16:34;3.40;;;1.88;;
20073;SDS011;10197;54.282;10.078;2022-08-02T00:19:01;2.30;;;1.65;;
20073;SDS011;10197;54.282;10.078;2022-08-02T00:21:28;2.78;;;1.40;;
20073;SDS011;10197;54.282;10.078;2022-08-02T00:23:55;4.30;;;1.88;;
20073;SDS011;10197;54.282;10.078;2022-08-02T00:26:22;3.90;;;2.00;;
20073;SDS011;10197;54.282;10.078;2022-08-02T00:28:50;3.28;;;1.77;;
20073;SDS011;10197;54.282;10.078;2022-08-02T00:31:18;3.90;;;1.70;;
20073;SDS011;10197;54.282;10.078;2022-08-02T00:33:44;3.35;;;1.58;;
20073;SDS011;10197;54.282;10.078;2022-08-02T00:36:11;2.50;;;1.63;;
20073;SDS011;10197;54.282;10.078;2022-08-02T00:38:38;3.53;;;1.80;;
20073;SDS011;10197;54.282;10.078;2022-08-02T00:41:10;2.80;;;1.83;;
20073;SDS011;10197;54.282;10.078;2022-08-02T00:43:37;4.47;;;1.88;;
20073;SDS011;10197;54.282;10.078;2022-08-02T00:46:05;3.88;;;1.67;;
20073;SDS011;10197;54.282;10.078;2022-08-02T00:48:32;3.85;;;1.70;;
20073;SDS011;10197;54.282;10.078;2022-08-02T00:50:59;6.60;;;1.83;;
20073;SDS011;10197;54.282;10.078;2022-08-02T00:53:25;3.75;;;1.92;;
20073;SDS011;10197;54.282;10.078;2022-08-02T00:55:52;3.95;;;1.92;;
20073;SDS011;10197;54.282;10.078;2022-08-02T00:58:19;3.78;;;2.00;;
20073;SDS011;10197;54.282;10.078;2022-08-02T01:00:46;3.22;;;1.75;;
20073;SDS011;10197;54.282;10.078;2022-08-02T01:03:14;1.75;;;1.60;;
20073;SDS011;10197;54.282;10.078;2022-08-02T01:05:41;4.88;;;1.92;;
20073;SDS011;10197;54.282;10.078;2022-08-02T01:08:08;4.20;;;1.80;;
20073;SDS011;10197;54.282;10.078;2022-08-02T01:10:35;2.47;;;1.73;;
20073;SDS011;10197;54.282;10.078;2022-08-02T01:13:02;3.05;;;1.90;;
20073;SDS011;10197;54.282;10.078;2022-08-02T01:15:29;2.80;;;1.70;;
20073;SDS011;10197;54.282;10.078;2022-08-02T01:17:58;2.45;;;1.67;;
20073;SDS011;10197;54.282;10.078;2022-08-02T01:20:48;3.90;;;1.48;;
20073;SDS011;10197;54.282;10.078;2022-08-02T01:23:30;2.75;;;1.70;;
20073;SDS011;10197;54.282;10.078;2022-08-02T01:26:10;2.83;;;1.60;;
20073;SDS011;10197;54.282;10.078;2022-08-02T01:28:47;3.25;;;1.80;;
20073;SDS011;10197;54.282;10.078;2022-08-02T01:31:17;4.13;;;2.08;;
20073;SDS011;10197;54.282;10.078;2022-08-02T01:33:47;4.45;;;2.10;;
20073;SDS011;10197;54.282;10.078;2022-08-02T01:36:18;3.72;;;1.80;;
20073;SDS011;10197;54.282;10.078;2022-08-02T01:38:46;5.75;;;2.20;;
20073;SDS011;10197;54.282;10.078;2022-08-02T01:41:15;3.55;;;1.77;;
20073;SDS011;10197;54.282;10.078;2022-08-02T01:43:46;1.83;;;1.67;;
20073;SDS011;10197;54.282;10.078;2022-08-02T01:46:15;4.80;;;1.90;;
20073;SDS011;10197;54.282;10.078;2022-08-02T01:48:42;3.90;;;1.90;;
20073;SDS011;10197;54.282;10.078;2022-08-02T01:51:11;6.40;;;2.17;;
20073;SDS011;10197;54.282;10.078;2022-08-02T01:53:41;3.75;;;2.13;;
20073;SDS011;10197;54.282;10.078;2022-08-02T01:56:09;4.65;;;2.10;;
20073;SDS011;10197;54.282;10.078;2022-08-02T01:58:37;2.55;;;1.85;;
20073;SDS011;10197;54.282;10.078;2022-08-02T02:01:06;3.72;;;1.90;;
20073;SDS011;10197;54.282;10.078;2022-08-02T02:03:33;3.90;;;1.85;;
20073;SDS011;10197;54.282;10.078;2022-08-02T02:06:01;5.88;;;1.80;;
20073;SDS011;10197;54.282;10.078;2022-08-02T02:08:32;1.95;;;1.85;;
20073;SDS011;10197;54.282;10.078;2022-08-02T02:10:59;5.47;;;1.98;;
20073;SDS011;10197;54.282;10.078;2022-08-02T02:13:27;2.50;;;1.92;;
20073;SDS011;10197;54.282;10.078;2022-08-02T02:15:55;2.83;;;1.98;;
20073;SDS011;10197;54.282;10.078;2022-08-02T02:18:26;3.60;;;1.95;;
20073;SDS011;10197;54.282;10.078;2022-08-02T02:20:53;3.70;;;2.00;;
20073;SDS011;10197;54.282;10.078;2022-08-02T02:23:20;2.75;;;1.90;;
20073;SDS011;10197;54.282;10.078;2022-08-02T02:25:47;3.13;;;1.65;;
20073;SDS011;10197;54.282;10.078;2022-08-02T02:28:16;3.83;;;1.80;;
20073;SDS011;10197;54.282;10.078;2022-08-02T02:30:49;2.58;;;1.80;;
20073;SDS011;10197;54.282;10.078;2022-08-02T02:33:17;4.07;;;3.00;;
20073;SDS011;10197;54.282;10.078;2022-08-02T02:35:46;2.78;;;1.90;;
20073;SDS011;10197;54.282;10.078;2022-08-02T02:38:15;3.03;;;1.85;;
20073;SDS011;10197;54.282;10.078;2022-08-02T02:40:44;2.30;;;1.80;;
20073;SDS011;10197;54.282;10.078;2022-08-02T02:43:12;3.72;;;2.05;;
20073;SDS011;10197;54.282;10.078;2022-08-02T02:45:40;2.40;;;1.90;;
20073;SDS011;10197;54.282;10.078;2022-08-02T02:48:07;5.47;;;1.88;;
20073;SDS011;10197;54.282;10.078;2022-08-02T02:50:35;2.20;;;2.00;;
20073;SDS011;10197;54.282;10.078;2022-08-02T02:53:03;3.30;;;2.00;;
20073;SDS011;10197;54.282;10.078;2022-08-02T02:55:31;2.20;;;1.77;;
20073;SDS011;10197;54.282;10.078;2022-08-02T02:57:58;4.63;;;2.50;;
20073;SDS011;10197;54.282;10.078;2022-08-02T03:00:26;1.80;;;1.70;;
20073;SDS011;10197;54.282;10.078;2022-08-02T03:03:11;3.45;;;2.13;;
20073;SDS011;10197;54.282;10.078;2022-08-02T03:05:38;5.22;;;2.20;;
20073;SDS011;10197;54.282;10.078;2022-08-02T03:08:06;4.80;;;2.00;;
20073;SDS011;10197;54.282;10.078;2022-08-02T03:10:33;3.10;;;2.00;;
20073;SDS011;10197;54.282;10.078;2022-08-02T03:13:00;5.10;;;2.17;;
20073;SDS011;10197;54.282;10.078;2022-08-02T03:15:27;2.70;;;1.90;;
20073;SDS011;10197;54.282;10.078;2022-08-02T03:17:55;3.83;;;2.42;;
20073;SDS011;10197;54.282;10.078;2022-08-02T03:20:21;4.28;;;1.92;;
20073;SDS011;10197;54.282;10.078;2022-08-02T03:22:48;7.20;;;1.98;;
20073;SDS011;10197;54.282;10.078;2022-08-02T03:25:17;4.78;;;2.13;;
20073;SDS011;10197;54.282;10.078;2022-08-02T03:27:44;3.17;;;2.22;;
20073;SDS011;10197;54.282;10.078;2022-08-02T03:30:12;3.50;;;2.50;;
20073;SDS011;10197;54.282;10.078;2022-08-02T03:32:40;2.78;;;2.20;;
20073;SDS011;10197;54.282;10.078;2022-08-02T03:35:09;2.45;;;2.03;;
20073;SDS011;10197;54.282;10.078;2022-08-02T03:37:37;2.72;;;1.88;;
20073;SDS011;10197;54.282;10.078;2022-08-02T03:40:05;4.70;;;2.03;;
20073;SDS011;10197;54.282;10.078;2022-08-02T03:42:35;2.30;;;2.10;;
20073;SDS011;10197;54.282;10.078;2022-08-02T03:45:02;3.30;;;2.20;;
20073;SDS011;10197;54.282;10.078;2022-08-02T03:47:31;3.17;;;2.30;;
20073;SDS011;10197;54.282;10.078;2022-08-02T03:49:59;3.05;;;2.20;;
20073;SDS011;10197;54.282;10.078;2022-08-02T03:52:26;3.05;;;2.40;;
20073;SDS011;10197;54.282;10.078;2022-08-02T03:54:53;6.53;;;2.42;;
20073;SDS011;10197;54.282;10.078;2022-08-02T03:57:20;3.50;;;2.30;;
20073;SDS011;10197;54.282;10.078;2022-08-02T03:59:49;4.55;;;2.30;;
20073;SDS011;10197;54.282;10.078;2022-08-02T04:02:15;4.15;;;2.45;;
20073;SDS011;10197;54.282;10.078;2022-08-02T04:04:42;4.72;;;2.47;;
20073;SDS011;10197;54.282;10.078;2022-08-02T04:07:09;4.30;;;2.85;;
20073;SDS011;10197;54.282;10.078;2022-08-02T04:09:36;3.83;;;2.40;;
20073;SDS011;10197;54.282;10.078;2022-08-02T04:12:03;5.45;;;2.63;;
20073;SDS011;10197;54.282;10.078;2022-08-02T04:14:30;3.50;;;2.30;;
20073;SDS011;10197;54.282;10.078;2022-08-02T04:17:00;3.85;;;2.47;;
20073;SDS011;10197;54.282;10.078;2022-08-02T04:19:29;4.85;;;2.60;;
20073;SDS011;10197;54.282;10.078;2022-08-02T04:21:58;5.20;;;2.90;;
20073;SDS011;10197;54.282;10.078;2022-08-02T04:24:30;4.10;;;2.50;;
20073;SDS011;10197;54.282;10.078;2022-08-02T04:26:59;4.93;;;2.38;;
20073;SDS011;10197;54.282;10.078;2022-08-02T04:29:26;4.30;;;2.67;;
20073;SDS011;10197;54.282;10.078;2022-08-02T04:31:54;3.92;;;2.90;;
20073;SDS011;10197;54.282;10.078;2022-08-02T04:34:22;4.80;;;2.88;;
20073;SDS011;10197;54.282;10.078;2022-08-02T04:36:49;3.60;;;2.97;;
20073;SDS011;10197;54.282;10.078;2022-08-02T04:39:17;4.65;;;2.70;;
20073;SDS011;10197;54.282;10.078;2022-08-02T04:41:44;4.28;;;2.90;;
20073;SDS011;10197;54.282;10.078;2022-08-02T04:44:12;7.80;;;3.00;;
20073;SDS011;10197;54.282;10.078;2022-08-02T04:46:40;6.07;;;3.30;;
20073;SDS011;10197;54.282;10.078;2022-08-02T04:49:09;5.90;;;3.40;;
20073;SDS011;10197;54.282;10.078;2022-08-02T04:51:38;3.90;;;3.17;;
20073;SDS011;10197;54.282;10.078;2022-08-02T04:54:05;4.88;;;3.30;;
20073;SDS011;10197;54.282;10.078;2022-08-02T04:56:33;5.13;;;3.33;;
20073;SDS011;10197;54.282;10.078;2022-08-02T04:59:00;4.82;;;3.50;;
20073;SDS011;10197;54.282;10.078;2022-08-02T05:01:27;6.28;;;3.13;;
20073;SDS011;10197;54.282;10.078;2022-08-02T05:03:54;4.22;;;3.35;;
20073;SDS011;10197;54.282;10.078;2022-08-02T05:06:21;5.55;;;3.70;;
20073;SDS011;10197;54.282;10.078;2022-08-02T05:08:50;5.57;;;3.88;;
20073;SDS011;10197;54.282;10.078;2022-08-02T05:11:16;8.35;;;4.35;;
20073;SDS011;10197;54.282;10.078;2022-08-02T05:13:43;6.25;;;4.35;;
20073;SDS011;10197;54.282;10.078;2022-08-02T05:16:10;8.10;;;5.38;;
20073;SDS011;10197;54.282;10.078;2022-08-02T05:18:37;8.95;;;5.28;;
20073;SDS011;10197;54.282;10.078;2022-08-02T05:21:04;11.55;;;5.45;;
20073;SDS011;10197;54.282;10.078;2022-08-02T05:23:31;8.82;;;5.40;;
20073;SDS011;10197;54.282;10.078;2022-08-02T05:26:06;9.32;;;5.43;;
20073;SDS011;10197;54.282;10.078;2022-08-02T05:28:33;13.55;;;5.30;;
20073;SDS011;10197;54.282;10.078;2022-08-02T05:31:00;7.88;;;4.45;;
20073;SDS011;10197;54.282;10.078;2022-08-02T05:33:27;8.93;;;4.05;;
20073;SDS011;10197;54.282;10.078;2022-08-02T05:35:53;6.93;;;4.00;;
20073;SDS011;10197;54.282;10.078;2022-08-02T05:38:23;7.65;;;4.40;;
20073;SDS011;10197;54.282;10.078;2022-08-02T05:40:50;9.50;;;4.38;;
20073;SDS011;10197;54.282;10.078;2022-08-02T05:43:18;5.43;;;3.03;;
20073;SDS011;10197;54.282;10.078;2022-08-02T05:45:45;12.27;;;6.32;;
20073;SDS011;10197;54.282;10.078;2022-08-02T05:48:12;10.75;;;3.92;;
20073;SDS011;10197;54.282;10.078;2022-08-02T05:50:40;9.93;;;3.72;;
20073;SDS011;10197;54.282;10.078;2022-08-02T05:53:12;9.57;;;3.97;;
20073;SDS011;10197;54.282;10.078;2022-08-02T05:55:44;6.55;;;3.45;;
20073;SDS011;10197;54.282;10.078;2022-08-02T05:58:17;11.32;;;4.28;;
20073;SDS011;10197;54.282;10.078;2022-08-02T06:00:50;8.20;;;3.80;;
20073;SDS011;10197;54.282;10.078;2022-08-02T06:03:21;7.93;;;5.28;;
20073;SDS011;10197;54.282;10.078;2022-08-02T06:05:52;6.72;;;4.18;;
20073;SDS011;10197;54.282;10.078;2022-08-02T06:08:23;7.65;;;4.22;;
20073;SDS011;10197;54.282;10.078;2022-08-02T06:10:50;11.35;;;3.78;;
20073;SDS011;10197;54.282;10.078;2022-08-02T06:13:17;5.25;;;3.45;;
20073;SDS011;10197;54.282;10.078;2022-08-02T06:15:48;7.25;;;3.20;;
20073;SDS011;10197;54.282;10.078;2022-08-02T06:18:17;10.63;;;4.03;;
20073;SDS011;10197;54.282;10.078;2022-08-02T06:20:45;7.22;;;3.30;;
20073;SDS011;10197;54.282;10.078;2022-08-02T06:23:14;5.80;;;2.90;;
20073;SDS011;10197;54.282;10.078;2022-08-02T06:25:42;6.20;;;2.97;;
20073;SDS011;10197;54.282;10.078;2022-08-02T06:28:12;8.88;;;4.00;;
20073;SDS011;10197;54.282;10.078;2022-08-02T06:30:40;11.32;;;3.67;;
20073;SDS011;10197;54.282;10.078;2022-08-02T06:33:09;7.72;;;2.70;;
20073;SDS011;10197;54.282;10.078;2022-08-02T06:35:38;19.27;;;7.47;;
20073;SDS011;10197;54.282;10.078;2022-08-02T06:38:11;16.88;;;8.57;;
20073;SDS011;10197;54.282;10.078;2022-08-02T06:40:45;12.32;;;4.20;;
20073;SDS011;10197;54.282;10.078;2022-08-02T06:43:17;12.43;;;3.95;;
20073;SDS011;10197;54.282;10.078;2022-08-02T06:45:46;22.92;;;6.43;;
20073;SDS011;10197;54.282;10.078;2022-08-02T06:48:13;17.83;;;4.15;;
20073;SDS011;10197;54.282;10.078;2022-08-02T06:50:40;11.40;;;4.10;;
20073;SDS011;10197;54.282;10.078;2022-08-02T06:53:09;11.40;;;3.00;;
20073;SDS011;10197;54.282;10.078;2022-08-02T06:55:36;10.70;;;3.20;;
20073;SDS011;10197;54.282;10.078;2022-08-02T06:58:03;14.18;;;3.33;;
20073;SDS011;10197;54.282;10.078;2022-08-02T07:00:30;11.50;;;2.33;;
20073;SDS011;10197;54.282;10.078;2022-08-02T07:02:59;9.98;;;2.90;;
20073;SDS011;10197;54.282;10.078;2022-08-02T07:05:27;11.52;;;3.50;;
20073;SDS011;10197;54.282;10.078;2022-08-02T07:07:54;11.60;;;3.28;;
20073;SDS011;10197;54.282;10.078;2022-08-02T07:10:22;9.32;;;2.85;;
20073;SDS011;10197;54.282;10.078;2022-08-02T07:12:49;12.27;;;4.82;;
20073;SDS011;10197;54.282;10.078;2022-08-02T07:15:16;12.13;;;5.55;;
20073;SDS011;10197;54.282;10.078;2022-08-02T07:17:42;10.30;;;3.08;;
20073;SDS011;10197;54.282;10.078;2022-08-02T07:20:11;7.35;;;2.40;;
20073;SDS011;10197;54.282;10.078;2022-08-02T07:22:39;8.02;;;2.70;;
20073;SDS011;10197;54.282;10.078;2022-08-02T07:25:06;9.57;;;2.78;;
20073;SDS011;10197;54.282;10.078;2022-08-02T07:27:34;10.43;;;2.90;;
20073;SDS011;10197;54.282;10.078;2022-08-02T07:30:01;14.50;;;3.25;;
20073;SDS011;10197;54.282;10.078;2022-08-02T07:32:29;14.00;;;2.90;;
20073;SDS011;10197;54.282;10.078;2022-08-02T07:34:57;12.07;;;2.97;;
20073;SDS011;10197;54.282;10.078;2022-08-02T07:37:26;12.50;;;3.28;;
20073;SDS011;10197;54.282;10.078;2022-08-02T07:39:54;10.07;;;3.30;;
20073;SDS011;10197;54.282;10.078;2022-08-02T07:42:21;10.60;;;3.30;;
20073;SDS011;10197;54.282;10.078;2022-08-02T07:44:48;7.28;;;2.53;;
20073;SDS011;10197;54.282;10.078;2022-08-02T07:47:15;9.68;;;2.70;;
20073;SDS011;10197;54.282;10.078;2022-08-02T07:49:43;9.05;;;2.35;;
20073;SDS011;10197;54.282;10.078;2022-08-02T07:52:10;17.10;;;3.25;;
20073;SDS011;10197;54.282;10.078;2022-08-02T07:54:38;11.48;;;3.13;;
20073;SDS011;10197;54.282;10.078;2022-08-02T07:57:05;10.55;;;2.90;;
20073;SDS011;10197;54.282;10.078;2022-08-02T07:59:32;10.95;;;2.60;;
20073;SDS011;10197;54.282;10.078;2022-08-02T08:01:59;5.47;;;2.47;;
20073;SDS011;10197;54.282;10.078;2022-08-02T08:04:26;7.43;;;2.70;;
20073;SDS011;10197;54.282;10.078;2022-08-02T08:06:52;8.15;;;2.72;;
20073;SDS011;10197;54.282;10.078;2022-08-02T08:09:20;3.95;;;2.20;;
20073;SDS011;10197;54.282;10.078;2022-08-02T08:11:48;8.90;;;2.45;;
20073;SDS011;10197;54.282;10.078;2022-08-02T08:14:15;6.43;;;2.60;;
20073;SDS011;10197;54.282;10.078;2022-08-02T08:16:42;9.70;;;2.53;;
20073;SDS011;10197;54.282;10.078;2022-08-02T08:19:09;7.18;;;2.38;;
20073;SDS011;10197;54.282;10.078;2022-08-02T08:21:36;6.43;;;2.00;;
20073;SDS011;10197;54.282;10.078;2022-08-02T08:24:03;7.97;;;2.20;;
20073;SDS011;10197;54.282;10.078;2022-08-02T08:26:30;9.15;;;3.03;;
20073;SDS011;10197;54.282;10.078;2022-08-02T08:28:59;10.48;;;2.60;;
20073;SDS011;10197;54.282;10.078;2022-08-02T08:31:26;7.47;;;2.47;;
20073;SDS011;10197;54.282;10.078;2022-08-02T08:33:53;6.10;;;2.20;;
20073;SDS011;10197;54.282;10.078;2022-08-02T08:36:21;8.85;;;2.22;;
20073;SDS011;10197;54.282;10.078;2022-08-02T08:38:48;8.13;;;2.20;;
20073;SDS011;10197;54.282;10.078;2022-08-02T08:41:15;7.30;;;2.25;;
20073;SDS011;10197;54.282;10.078;2022-08-02T08:43:42;4.97;;;2.22;;
20073;SDS011;10197;54.282;10.078;2022-08-02T08:46:10;8.00;;;2.20;;
20073;SDS011;10197;54.282;10.078;2022-08-02T08:48:47;8.55;;;2.05;;
20073;SDS011;10197;54.282;10.078;2022-08-02T08:51:15;7.60;;;2.08;;
20073;SDS011;10197;54.282;10.078;2022-08-02T08:53:46;7.28;;;2.00;;
20073;SDS011;10197;54.282;10.078;2022-08-02T08:56:14;7.18;;;2.08;;
20073;SDS011;10197;54.282;10.078;2022-08-02T08:58:42;9.32;;;2.55;;
20073;SDS011;10197;54.282;10.078;2022-08-02T09:01:10;8.07;;;2.20;;
20073;SDS011;10197;54.282;10.078;2022-08-02T09:03:38;5.45;;;1.92;;
20073;SDS011;10197;54.282;10.078;2022-08-02T09:06:05;7.65;;;2.05;;
20073;SDS011;10197;54.282;10.078;2022-08-02T09:08:32;8.43;;;2.10;;
20073;SDS011;10197;54.282;10.078;2022-08-02T09:10:58;9.05;;;2.40;;
20073;SDS011;10197;54.282;10.078;2022-08-02T09:13:26;4.90;;;1.60;;
20073;SDS011;10197;54.282;10.078;2022-08-02T09:15:55;8.07;;;2.33;;
20073;SDS011;10197;54.282;10.078;2022-08-02T09:18:30;6.68;;;2.00;;
20073;SDS011;10197;54.282;10.078;2022-08-02T09:20:58;4.82;;;1.73;;
20073;SDS011;10197;54.282;10.078;2022-08-02T09:23:32;4.45;;;1.48;;
20073;SDS011;10197;54.282;10.078;2022-08-02T09:26:00;5.65;;;1.83;;
20073;SDS011;10197;54.282;10.078;2022-08-02T09:28:29;7.35;;;2.15;;
20073;SDS011;10197;54.282;10.078;2022-08-02T09:31:04;7.53;;;1.92;;
20073;SDS011;10197;54.282;10.078;2022-08-02T09:33:34;8.27;;;2.30;;
20073;SDS011;10197;54.282;10.078;2022-08-02T09:36:02;7.32;;;1.90;;
20073;SDS011;10197;54.282;10.078;2022-08-02T09:38:30;6.22;;;1.60;;
20073;SDS011;10197;54.282;10.078;2022-08-02T09:40:57;6.25;;;1.65;;
20073;SDS011;10197;54.282;10.078;2022-08-02T09:46:12;4.60;;;1.67;;
20073;SDS011;10197;54.282;10.078;2022-08-02T09:48:51;8.20;;;2.10;;
20073;SDS011;10197;54.282;10.078;2022-08-02T09:51:22;6.13;;;1.85;;
20073;SDS011;10197;54.282;10.078;2022-08-02T09:53:50;7.40;;;2.03;;
20073;SDS011;10197;54.282;10.078;2022-08-02T09:56:19;6.18;;;1.60;;
20073;SDS011;10197;54.282;10.078;2022-08-02T09:58:46;9.00;;;1.85;;
20073;SDS011;10197;54.282;10.078;2022-08-02T10:01:14;5.93;;;1.50;;
20073;SDS011;10197;54.282;10.078;2022-08-02T10:03:53;4.95;;;1.40;;
20073;SDS011;10197;54.282;10.078;2022-08-02T10:06:21;3.50;;;1.45;;
20073;SDS011;10197;54.282;10.078;2022-08-02T10:08:48;6.00;;;2.15;;
20073;SDS011;10197;54.282;10.078;2022-08-02T10:11:16;4.82;;;1.90;;
20073;SDS011;10197;54.282;10.078;2022-08-02T10:13:43;4.53;;;1.70;;
20073;SDS011;10197;54.282;10.078;2022-08-02T10:16:10;3.40;;;1.80;;
20073;SDS011;10197;54.282;10.078;2022-08-02T10:18:37;5.70;;;1.60;;
20073;SDS011;10197;54.282;10.078;2022-08-02T10:21:07;5.07;;;1.95;;
20073;SDS011;10197;54.282;10.078;2022-08-02T10:23:38;3.63;;;1.45;;
20073;SDS011;10197;54.282;10.078;2022-08-02T10:26:05;4.20;;;1.55;;
20073;SDS011;10197;54.282;10.078;2022-08-02T10:28:33;3.70;;;1.50;;
20073;SDS011;10197;54.282;10.078;2022-08-02T10:31:01;4.43;;;1.33;;
20073;SDS011;10197;54.282;10.078;2022-08-02T10:33:29;5.68;;;1.63;;
20073;SDS011;10197;54.282;10.078;2022-08-02T10:35:58;5.35;;;1.70;;
20073;SDS011;10197;54.282;10.078;2022-08-02T10:38:27;4.85;;;1.55;;
20073;SDS011;10197;54.282;10.078;2022-08-02T10:40:54;4.35;;;1.60;;
20073;SDS011;10197;54.282;10.078;2022-08-02T10:43:41;2.97;;;1.73;;
20073;SDS011;10197;54.282;10.078;2022-08-02T10:46:22;5.35;;;1.55;;
20073;SDS011;10197;54.282;10.078;2022-08-02T10:49:00;4.05;;;1.30;;
20073;SDS011;10197;54.282;10.078;2022-08-02T10:54:22;5.25;;;1.40;;
20073;SDS011;10197;54.282;10.078;2022-08-02T10:56:51;2.50;;;1.30;;
20073;SDS011;10197;54.282;10.078;2022-08-02T10:59:23;4.60;;;1.42;;
20073;SDS011;10197;54.282;10.078;2022-08-02T11:01:51;5.00;;;1.50;;
20073;SDS011;10197;54.282;10.078;2022-08-02T11:04:26;4.72;;;1.50;;
20073;SDS011;10197;54.282;10.078;2022-08-02T11:07:07;3.38;;;1.70;;
20073;SDS011;10197;54.282;10.078;2022-08-02T11:09:36;4.00;;;1.00;;
20073;SDS011;10197;54.282;10.078;2022-08-02T11:12:04;8.73;;;1.60;;
20073;SDS011;10197;54.282;10.078;2022-08-02T11:14:33;3.88;;;1.33;;
20073;SDS011;10197;54.282;10.078;2022-08-02T11:17:05;4.22;;;1.63;;
20073;SDS011;10197;54.282;10.078;2022-08-02T11:22:43;7.60;;;1.88;;
20073;SDS011;10197;54.282;10.078;2022-08-02T11:25:31;5.05;;;1.80;;
20073;SDS011;10197;54.282;10.078;2022-08-02T11:27:59;7.07;;;1.73;;
20073;SDS011;10197;54.282;10.078;2022-08-02T11:30:33;5.82;;;1.50;;
20073;SDS011;10197;54.282;10.078;2022-08-02T11:33:01;4.75;;;1.67;;
20073;SDS011;10197;54.282;10.078;2022-08-02T11:35:30;4.00;;;1.63;;
20073;SDS011;10197;54.282;10.078;2022-08-02T11:38:10;4.47;;;1.25;;
20073;SDS011;10197;54.282;10.078;2022-08-02T11:40:39;4.53;;;1.20;;
20073;SDS011;10197;54.282;10.078;2022-08-02T11:43:14;6.32;;;1.60;;
20073;SDS011;10197;54.282;10.078;2022-08-02T11:45:45;6.60;;;1.60;;
20073;SDS011;10197;54.282;10.078;2022-08-02T11:48:12;2.30;;;1.38;;
20073;SDS011;10197;54.282;10.078;2022-08-02T11:50:39;3.22;;;1.13;;
20073;SDS011;10197;54.282;10.078;2022-08-02T11:53:12;3.72;;;1.20;;
20073;SDS011;10197;54.282;10.078;2022-08-02T11:55:41;2.63;;;0.98;;
20073;SDS011;10197;54.282;10.078;2022-08-02T11:58:08;3.85;;;1.27;;
20073;SDS011;10197;54.282;10.078;2022-08-02T12:00:37;3.20;;;1.40;;
20073;SDS011;10197;54.282;10.078;2022-08-02T12:03:05;2.30;;;1.20;;
20073;SDS011;10197;54.282;10.078;2022-08-02T12:05:32;4.82;;;1.60;;
20073;SDS011;10197;54.282;10.078;2022-08-02T12:07:59;3.42;;;1.42;;
20073;SDS011;10197;54.282;10.078;2022-08-02T12:10:26;3.80;;;1.20;;
20073;SDS011;10197;54.282;10.078;2022-08-02T12:12:55;4.75;;;1.63;;
20073;SDS011;10197;54.282;10.078;2022-08-02T12:15:29;4.25;;;1.20;;
20073;SDS011;10197;54.282;10.078;2022-08-02T12:17:57;3.25;;;1.17;;
20073;SDS011;10197;54.282;10.078;2022-08-02T12:20:41;5.47;;;1.30;;
20073;SDS011;10197;54.282;10.078;2022-08-02T12:23:09;4.35;;;1.00;;
20073;SDS011;10197;54.282;10.078;2022-08-02T12:25:36;6.07;;;1.50;;
20073;SDS011;10197;54.282;10.078;2022-08-02T12:28:15;5.80;;;1.63;;
20073;SDS011;10197;54.282;10.078;2022-08-02T12:30:48;4.88;;;1.55;;
20073;SDS011;10197;54.282;10.078;2022-08-02T12:33:17;4.53;;;1.30;;
20073;SDS011;10197;54.282;10.078;2022-08-02T12:35:44;8.02;;;1.30;;
20073;SDS011;10197;54.282;10.078;2022-08-02T12:38:11;3.63;;;1.00;;
20073;SDS011;10197;54.282;10.078;2022-08-02T12:40:38;1.88;;;1.05;;
20073;SDS011;10197;54.282;10.078;2022-08-02T12:43:06;4.22;;;1.40;;
20073;SDS011;10197;54.282;10.078;2022-08-02T12:45:45;3.20;;;1.50;;
20073;SDS011;10197;54.282;10.078;2022-08-02T12:48:14;3.40;;;1.42;;
20073;SDS011;10197;54.282;10.078;2022-08-02T12:50:41;5.55;;;1.33;;
20073;SDS011;10197;54.282;10.078;2022-08-02T12:53:09;4.57;;;1.60;;
20073;SDS011;10197;54.282;10.078;2022-08-02T12:55:45;4.22;;;1.20;;
20073;SDS011;10197;54.282;10.078;2022-08-02T12:58:13;3.53;;;1.30;;
20073;SDS011;10197;54.282;10.078;2022-08-02T13:00:40;3.25;;;1.50;;
20073;SDS011;10197;54.282;10.078;2022-08-02T13:03:10;2.88;;;1.25;;
20073;SDS011;10197;54.282;10.078;2022-08-02T13:05:37;4.70;;;1.33;;
20073;SDS011;10197;54.282;10.078;2022-08-02T13:08:05;5.63;;;1.25;;
20073;SDS011;10197;54.282;10.078;2022-08-02T13:10:32;7.40;;;1.40;;
20073;SDS011;10197;54.282;10.078;2022-08-02T13:12:58;4.20;;;1.40;;
20073;SDS011;10197;54.282;10.078;2022-08-02T13:15:26;6.85;;;1.42;;
20073;SDS011;10197;54.282;10.078;2022-08-02T13:17:53;5.32;;;1.55;;
20073;SDS011;10197;54.282;10.078;2022-08-02T13:20:22;3.45;;;1.23;;
20073;SDS011;10197;54.282;10.078;2022-08-02T13:22:49;4.70;;;1.20;;
20073;SDS011;10197;54.282;10.078;2022-08-02T13:25:16;3.60;;;1.33;;
20073;SDS011;10197;54.282;10.078;2022-08-02T13:27:47;4.88;;;1.50;;
20073;SDS011;10197;54.282;10.078;2022-08-02T13:30:14;2.88;;;1.10;;
20073;SDS011;10197;54.282;10.078;2022-08-02T13:32:41;3.40;;;1.50;;
20073;SDS011;10197;54.282;10.078;2022-08-02T13:35:09;4.90;;;1.50;;
20073;SDS011;10197;54.282;10.078;2022-08-02T13:37:37;4.72;;;1.33;;
20073;SDS011;10197;54.282;10.078;2022-08-02T13:40:07;3.97;;;1.50;;
20073;SDS011;10197;54.282;10.078;2022-08-02T13:42:34;6.68;;;2.10;;
20073;SDS011;10197;54.282;10.078;2022-08-02T13:45:06;4.40;;;1.55;;
20073;SDS011;10197;54.282;10.078;2022-08-02T13:47:33;6.20;;;1.60;;
20073;SDS011;10197;54.282;10.078;2022-08-02T13:50:01;3.60;;;1.23;;
20073;SDS011;10197;54.282;10.078;2022-08-02T13:52:28;3.70;;;1.38;;
20073;SDS011;10197;54.282;10.078;2022-08-02T13:54:56;2.00;;;1.08;;
20073;SDS011;10197;54.282;10.078;2022-08-02T13:57:23;3.10;;;1.27;;
20073;SDS011;10197;54.282;10.078;2022-08-02T13:59:50;2.97;;;1.38;;
20073;SDS011;10197;54.282;10.078;2022-08-02T14:02:20;4.93;;;1.50;;
20073;SDS011;10197;54.282;10.078;2022-08-02T14:04:47;2.30;;;1.40;;
20073;SDS011;10197;54.282;10.078;2022-08-02T14:07:14;5.13;;;1.55;;
20073;SDS011;10197;54.282;10.078;2022-08-02T14:09:41;3.72;;;1.80;;
20073;SDS011;10197;54.282;10.078;2022-08-02T14:12:09;2.60;;;1.55;;
20073;SDS011;10197;54.282;10.078;2022-08-02T14:14:37;3.35;;;1.92;;
20073;SDS011;10197;54.282;10.078;2022-08-02T14:17:04;5.13;;;1.60;;
20073;SDS011;10197;54.282;10.078;2022-08-02T14:19:31;5.55;;;1.80;;
20073;SDS011;10197;54.282;10.078;2022-08-02T14:21:58;3.47;;;1.58;;
20073;SDS011;10197;54.282;10.078;2022-08-02T14:24:27;3.00;;;1.63;;
20073;SDS011;10197;54.282;10.078;2022-08-02T14:26:55;4.45;;;2.00;;
20073;SDS011;10197;54.282;10.078;2022-08-02T14:29:23;4.35;;;1.48;;
20073;SDS011;10197;54.282;10.078;2022-08-02T14:31:51;4.13;;;2.28;;
20073;SDS011;10197;54.282;10.078;2022-08-02T14:34:17;2.83;;;1.73;;
20073;SDS011;10197;54.282;10.078;2022-08-02T14:36:44;5.57;;;1.70;;
20073;SDS011;10197;54.282;10.078;2022-08-02T14:39:11;3.95;;;1.30;;
20073;SDS011;10197;54.282;10.078;2022-08-02T14:41:38;7.15;;;1.90;;
20073;SDS011;10197;54.282;10.078;2022-08-02T14:44:05;8.25;;;1.85;;
20073;SDS011;10197;54.282;10.078;2022-08-02T14:46:34;2.45;;;1.83;;
20073;SDS011;10197;54.282;10.078;2022-08-02T14:49:02;2.97;;;1.65;;
20073;SDS011;10197;54.282;10.078;2022-08-02T14:51:32;2.83;;;1.45;;